Time;durP1;ratioP1;P1;durP2;ratioP2;P2;SDS_P1;SDS_P2;PMS_P1;PMS_P2;Temp;Humidity;BMP_temperature;BMP_pressure;BME280_temperature;BME280_humidity;BME280_pressure;Samples;Min_cycle;Max_cycle;Signal;HPM_P1;HPM_P2
2023/03/12 00:01:44;;;;;;;7.03;3.08;;;;;;;6.55;49.64;99596.09;4929602;29;20039;-86
2023/03/12 00:04:16;;;;;;;9.82;2.35;;;;;;;6.58;49.51;99596.75;4939987;28;20048;-88
2023/03/12 00:06:41;;;;;;;9.13;1.88;;;;;;;6.46;49.68;99621.09;4959082;28;20039;-87
2023/03/12 00:09:10;;;;;;;7.10;1.70;;;;;;;6.47;49.07;99608.56;4940407;29;20079;-87
2023/03/12 00:11:35;;;;;;;6.05;1.50;;;;;;;6.46;49.33;99620.22;4920462;29;20052;-85
2023/03/12 00:14:02;;;;;;;8.30;1.70;;;;;;;6.45;49.63;99630.09;4937340;29;20356;-86
2023/03/12 00:16:28;;;;;;;5.32;1.70;;;;;;;6.29;49.29;99622.00;4941112;28;20091;-86
2023/03/12 00:18:55;;;;;;;5.97;1.52;;;;;;;6.45;49.53;99640.75;4950694;28;20053;-86
2023/03/12 00:21:22;;;;;;;8.32;1.55;;;;;;;6.44;49.60;99641.78;4947550;28;20039;-85
2023/03/12 00:23:50;;;;;;;8.70;1.58;;;;;;;6.35;49.21;99645.41;4933685;29;20130;-86
2023/03/12 00:26:21;;;;;;;8.43;1.23;;;;;;;6.33;49.05;99639.38;4947730;29;20085;-86
2023/03/12 00:28:54;;;;;;;12.68;1.20;;;;;;;6.29;48.99;99651.34;4938244;28;20039;-86
2023/03/12 00:31:28;;;;;;;13.00;1.40;;;;;;;6.39;48.88;99649.44;4972853;28;20128;-86
2023/03/12 00:33:55;;;;;;;8.20;1.30;;;;;;;6.36;48.83;99654.25;4940561;29;20040;-86
2023/03/12 00:36:30;;;;;;;4.20;1.23;;;;;;;6.25;48.96;99647.31;4963011;29;20058;-85
2023/03/12 00:38:56;;;;;;;11.63;1.35;;;;;;;6.29;48.97;99659.38;4957491;28;20054;-85
2023/03/12 00:41:24;;;;;;;14.93;1.75;;;;;;;6.34;49.08;99660.59;4954959;29;20031;-89
2023/03/12 00:43:50;;;;;;;1.75;1.08;;;;;;;6.28;49.08;99655.88;4953387;28;20468;-85
2023/03/12 00:46:15;;;;;;;;;;;;;;;6.19;49.42;99655.97;4963214;28;20126;-86
2023/03/12 00:48:49;;;;;;;5.03;1.10;;;;;;;6.15;49.52;99658.09;4947006;29;20288;-83
2023/03/12 00:51:15;;;;;;;9.43;1.50;;;;;;;6.03;49.54;99675.38;4951426;29;20066;-86
2023/03/12 00:53:49;;;;;;;6.93;1.50;;;;;;;6.02;49.55;99655.88;4927309;29;20115;-87
2023/03/12 00:56:16;;;;;;;8.30;1.35;;;;;;;5.96;49.86;99640.47;4944109;29;20047;-87
2023/03/12 00:58:45;;;;;;;4.30;1.20;;;;;;;5.85;50.13;99630.88;4942116;29;20039;-88
2023/03/12 01:01:11;;;;;;;6.55;1.55;;;;;;;5.70;50.19;99608.41;4968070;28;20080;-88
2023/03/12 01:03:41;;;;;;;17.10;1.52;;;;;;;5.80;50.39;99626.97;4943974;29;20441;-85
2023/03/12 01:06:07;;;;;;;5.95;1.50;;;;;;;5.81;50.51;99634.84;4957862;28;20524;-87
2023/03/12 01:08:33;;;;;;;5.30;1.33;;;;;;;5.66;50.61;99634.53;4947583;28;20046;-85
2023/03/12 01:10:59;;;;;;;12.50;1.50;;;;;;;5.63;50.54;99616.19;4944268;28;20447;-84
2023/03/12 01:13:26;;;;;;;7.30;1.55;;;;;;;5.77;50.67;99653.97;4905154;29;20048;-86
2023/03/12 01:15:52;;;;;;;7.57;1.48;;;;;;;5.62;50.78;99625.19;4913225;29;20051;-86
2023/03/12 01:18:20;;;;;;;7.18;1.60;;;;;;;5.58;51.00;99639.00;4938435;29;20054;-86
2023/03/12 01:20:46;;;;;;;5.07;2.35;;;;;;;5.52;51.47;99650.25;4931775;29;20071;-87
2023/03/12 01:23:11;;;;;;;7.15;1.52;;;;;;;5.44;51.46;99613.72;4915245;29;20151;-85
2023/03/12 01:25:37;;;;;;;7.78;1.67;;;;;;;5.47;50.87;99616.06;4896400;29;20118;-87
2023/03/12 01:28:06;;;;;;;10.13;1.92;;;;;;;5.46;51.12;99633.06;4922138;29;20055;-87
2023/03/12 01:30:32;;;;;;;3.67;1.67;;;;;;;5.45;51.35;99607.38;4908093;29;20067;-87
2023/03/12 01:33:00;;;;;;;5.43;1.38;;;;;;;5.53;50.99;99604.78;4946690;29;20043;-84
2023/03/12 01:35:27;;;;;;;8.20;1.60;;;;;;;5.33;51.13;99608.59;4933364;29;20464;-89
2023/03/12 01:37:54;;;;;;;3.22;1.73;;;;;;;5.32;51.35;99583.78;4942795;29;20497;-88
2023/03/12 01:40:24;;;;;;;6.93;1.52;;;;;;;5.33;51.40;99601.44;4894478;29;20417;-87
2023/03/12 01:42:57;;;;;;;5.72;1.67;;;;;;;5.35;51.52;99617.28;4927716;29;20035;-86
2023/03/12 01:46:03;;;;;;;9.43;1.70;;;;;;;5.37;51.63;99633.97;4930854;29;20082;-89
2023/03/12 01:48:38;;;;;;;10.45;1.60;;;;;;;5.38;51.75;99641.78;4898777;28;20066;-88
2023/03/12 01:51:04;;;;;;;8.80;1.65;;;;;;;5.41;51.84;99643.34;4909216;29;20131;-85
2023/03/12 01:53:29;;;;;;;4.15;1.70;;;;;;;5.27;51.96;99629.56;4904498;29;20134;-88
2023/03/12 01:55:59;;;;;;;6.57;1.90;;;;;;;5.42;51.65;99682.31;4913954;29;20074;-86
2023/03/12 01:58:28;;;;;;;5.97;1.92;;;;;;;5.10;52.13;99657.00;4944040;28;20104;-85
2023/03/12 02:00:55;;;;;;;6.65;1.92;;;;;;;5.41;52.06;99702.81;4946751;28;20152;-87
2023/03/12 02:03:22;;;;;;;3.78;1.95;;;;;;;5.20;52.43;99687.09;4913864;29;20043;-86
2023/03/12 02:05:48;;;;;;;8.63;1.90;;;;;;;5.36;52.54;99712.25;4904045;29;20039;-85
2023/03/12 02:08:17;;;;;;;3.92;2.03;;;;;;;5.25;52.47;99713.31;4934506;29;20070;-89
2023/03/12 02:10:44;;;;;;;4.60;1.88;;;;;;;5.26;52.61;99731.78;4948340;28;20154;-87
2023/03/12 02:13:12;;;;;;;5.60;2.20;;;;;;;5.17;52.63;99727.34;4944192;29;20142;-87
2023/03/12 02:15:37;;;;;;;7.30;2.20;;;;;;;5.19;52.82;99722.72;4953000;28;20074;-88
2023/03/12 02:18:06;;;;;;;7.28;2.22;;;;;;;5.18;53.14;99745.03;4922732;29;20055;-88
2023/03/12 02:21:05;;;;;;;12.70;2.20;;;;;;;5.22;53.32;99743.75;4944790;29;20046;-87
2023/03/12 02:23:41;;;;;;;8.52;2.30;;;;;;;5.08;53.75;99738.94;4898546;29;20087;-86
2023/03/12 02:26:11;;;;;;;5.45;2.00;;;;;;;4.94;54.08;99732.28;4947539;29;20058;-86
2023/03/12 02:28:42;;;;;;;7.15;2.17;;;;;;;4.95;54.02;99719.78;4948326;28;20504;-86
2023/03/12 02:31:09;;;;;;;4.95;2.00;;;;;;;4.83;54.42;99692.50;4932727;29;20072;-86
2023/03/12 02:33:34;;;;;;;6.28;2.33;;;;;;;4.83;54.72;99701.31;4902339;29;20212;-86
2023/03/12 02:36:02;;;;;;;6.88;2.28;;;;;;;4.74;55.10;99694.22;4929436;29;20453;-85
2023/03/12 02:38:31;;;;;;;6.35;2.20;;;;;;;4.80;55.03;99714.09;4921858;29;20135;-85
2023/03/12 02:41:18;;;;;;;5.15;2.40;;;;;;;4.74;55.25;99710.19;4944368;28;20122;-86
2023/03/12 02:43:47;;;;;;;3.55;2.30;;;;;;;4.70;55.12;99692.00;4930600;29;20501;-88
2023/03/12 02:46:13;;;;;;;6.88;2.20;;;;;;;4.66;55.56;99696.78;4926462;29;20389;-85
2023/03/12 02:48:40;;;;;;;4.28;2.15;;;;;;;4.54;55.65;99656.19;4917722;29;20051;-86
2023/03/12 02:51:07;;;;;;;8.32;2.17;;;;;;;4.57;55.72;99676.38;4932198;29;20086;-87
2023/03/12 02:53:33;;;;;;;5.22;2.30;;;;;;;4.65;55.84;99693.25;4916674;29;20484;-87
2023/03/12 02:55:59;;;;;;;12.35;2.50;;;;;;;4.51;55.58;99669.78;4930514;29;20043;-86
2023/03/12 02:58:25;;;;;;;8.40;2.67;;;;;;;4.68;55.62;99702.78;4915954;29;20122;-87
2023/03/12 03:00:52;;;;;;;8.82;2.30;;;;;;;4.62;55.86;99716.69;4909462;29;20319;-85
2023/03/12 03:03:18;;;;;;;6.00;2.65;;;;;;;4.36;56.10;99693.38;4913861;29;20528;-86
2023/03/12 03:05:47;;;;;;;8.53;2.83;;;;;;;4.63;55.99;99724.50;4931809;29;20042;-85
2023/03/12 03:08:13;;;;;;;8.43;2.67;;;;;;;4.59;55.81;99744.44;4914832;29;20039;-87
2023/03/12 03:10:39;;;;;;;7.25;2.50;;;;;;;4.59;55.98;99748.94;4934174;29;20046;-86
2023/03/12 03:13:05;;;;;;;7.30;3.30;;;;;;;4.52;56.11;99737.16;4945525;29;20138;-87
2023/03/12 03:15:30;;;;;;;8.70;2.80;;;;;;;4.47;56.26;99739.44;4913040;29;20479;-86
2023/03/12 03:17:58;;;;;;;5.90;2.50;;;;;;;4.32;56.50;99725.75;4934307;29;20035;-86
2023/03/12 03:20:25;;;;;;;6.32;2.60;;;;;;;4.45;56.06;99750.25;4906848;28;20279;-86
2023/03/12 03:22:51;;;;;;;7.65;2.50;;;;;;;4.40;56.54;99745.34;4925963;29;20330;-86
2023/03/12 03:25:21;;;;;;;7.35;3.03;;;;;;;4.47;56.68;99769.53;4904842;28;20065;-86
2023/03/12 03:27:46;;;;;;;6.22;2.90;;;;;;;4.34;56.46;99751.22;4900504;29;20043;-86
2023/03/12 03:30:12;;;;;;;6.18;3.20;;;;;;;4.50;56.68;99798.56;4917561;29;20054;-85
2023/03/12 03:32:38;;;;;;;10.02;2.65;;;;;;;4.51;56.75;99823.34;4926647;29;20536;-86
2023/03/12 03:35:03;;;;;;;4.63;2.80;;;;;;;4.49;56.86;99833.28;4938537;28;20083;-87
2023/03/12 03:37:30;;;;;;;5.63;2.90;;;;;;;4.54;56.46;99842.56;4932564;28;20050;-92
2023/03/12 03:39:58;;;;;;;5.90;2.95;;;;;;;4.59;56.58;99872.25;4921352;29;20063;-84
2023/03/12 03:42:27;;;;;;;9.60;3.53;;;;;;;4.58;56.58;99881.19;4962521;29;20480;-88
2023/03/12 03:44:55;;;;;;;5.90;3.27;;;;;;;4.52;56.61;99887.09;4941040;28;20027;-90
2023/03/12 03:47:21;;;;;;;7.80;3.47;;;;;;;4.47;56.93;99896.47;4949978;28;20302;-86
2023/03/12 03:49:47;;;;;;;7.90;3.47;;;;;;;4.40;56.74;99875.75;4911666;29;20473;-87
2023/03/12 03:52:16;;;;;;;8.60;3.20;;;;;;;4.37;57.15;99899.97;4918957;29;20123;-86
2023/03/12 03:54:44;;;;;;;8.68;3.75;;;;;;;4.43;56.95;99906.56;4944057;29;20055;-85
2023/03/12 03:57:12;;;;;;;9.07;3.20;;;;;;;4.55;56.77;99907.28;4944762;28;20138;-86
2023/03/12 03:59:37;;;;;;;8.48;3.75;;;;;;;4.51;56.54;99928.00;4929345;29;20511;-85
2023/03/12 04:02:03;;;;;;;7.82;3.40;;;;;;;4.56;56.78;99930.25;4914243;29;20051;-86
2023/03/12 04:04:30;;;;;;;10.00;3.53;;;;;;;4.53;56.88;99960.66;4908116;29;20615;-85
2023/03/12 04:06:55;;;;;;;10.52;3.55;;;;;;;4.32;56.76;99935.97;4921360;29;20050;-86
2023/03/12 04:09:21;;;;;;;7.38;3.78;;;;;;;4.31;56.91;99937.81;4913662;29;20107;-87
2023/03/12 04:11:50;;;;;;;8.77;3.45;;;;;;;4.32;57.13;99957.25;4926892;28;20130;-87
2023/03/12 04:14:15;;;;;;;19.15;4.30;;;;;;;4.40;57.32;99962.72;4921242;29;20471;-87
2023/03/12 04:16:41;;;;;;;7.20;3.40;;;;;;;4.44;56.99;99985.44;4929989;28;20492;-87
2023/03/12 04:19:07;;;;;;;7.50;3.85;;;;;;;4.36;57.29;99988.78;4948117;29;20819;-87
2023/03/12 04:21:33;;;;;;;12.80;3.67;;;;;;;4.51;57.26;100009.69;4931123;29;20043;-86
2023/03/12 04:23:58;;;;;;;8.40;3.30;;;;;;;4.19;57.23;99976.13;4927219;29;20040;-89
2023/03/12 04:26:26;;;;;;;9.93;3.77;;;;;;;4.40;57.31;100015.97;4952344;28;21175;-87
2023/03/12 04:28:52;;;;;;;10.05;4.05;;;;;;;4.47;57.16;100034.88;4938282;29;20135;-85
2023/03/12 04:31:21;;;;;;;11.70;3.67;;;;;;;4.41;57.16;100034.47;4925018;29;20062;-86
2023/03/12 04:33:49;;;;;;;9.10;3.88;;;;;;;4.41;57.06;100039.78;4943428;29;20142;-86
2023/03/12 04:36:16;;;;;;;14.27;3.95;;;;;;;4.38;57.65;100064.03;4942207;28;20043;-86
2023/03/12 04:38:43;;;;;;;12.38;4.10;;;;;;;4.16;57.54;100024.31;4946547;28;20046;-85
2023/03/12 04:41:11;;;;;;;9.65;3.60;;;;;;;4.19;57.89;100040.84;4930981;29;20488;-84
2023/03/12 04:43:37;;;;;;;15.30;4.07;;;;;;;4.12;58.27;100044.16;4957046;28;20039;-85
2023/03/12 04:46:06;;;;;;;7.25;3.67;;;;;;;4.05;58.05;100011.97;4948973;29;20134;-86
2023/03/12 04:48:32;;;;;;;8.43;3.40;;;;;;;4.13;57.91;100019.25;4914126;29;20121;-86
2023/03/12 04:50:59;;;;;;;;;;;;;;;4.29;57.59;100024.06;4949226;28;20043;-85
2023/03/12 04:53:25;;;;;;;7.18;3.20;;;;;;;4.29;57.67;100045.38;4959602;29;19993;-86
2023/03/12 04:55:51;;;;;;;8.23;3.20;;;;;;;4.15;57.92;100027.97;4966487;29;20066;-85
2023/03/12 04:58:20;;;;;;;10.15;3.40;;;;;;;4.29;57.47;100056.00;4948134;28;20485;-87
2023/03/12 05:00:47;;;;;;;7.88;3.38;;;;;;;4.28;57.76;100055.16;4939984;29;20051;-88
2023/03/12 05:03:13;;;;;;;8.43;3.47;;;;;;;4.20;57.63;100033.72;4932994;29;20134;-87
2023/03/12 05:05:40;;;;;;;9.35;3.80;;;;;;;4.30;57.92;100049.69;4936453;29;20035;-87
2023/03/12 05:08:06;;;;;;;12.32;3.70;;;;;;;4.28;57.40;100033.03;4955108;29;20058;-86
2023/03/12 05:10:32;;;;;;;6.93;3.40;;;;;;;4.40;57.05;100075.38;4926936;29;20035;-88
2023/03/12 05:13:00;;;;;;;12.82;3.60;;;;;;;4.40;57.32;100066.53;4950969;28;20773;-87
2023/03/12 05:15:27;;;;;;;9.30;3.85;;;;;;;4.32;57.64;100072.53;4917636;29;20054;-87
2023/03/12 05:17:53;;;;;;;7.03;3.75;;;;;;;4.27;57.46;100079.25;4904138;29;20047;-91
2023/03/12 05:20:19;;;;;;;;;;;;;;;4.40;57.55;100094.00;4924648;29;20047;-86
2023/03/12 05:22:45;;;;;;;7.72;3.33;;;;;;;4.33;57.66;100099.97;4930657;29;19941;-87
2023/03/12 05:25:12;;;;;;;10.68;3.58;;;;;;;4.31;57.52;100092.16;4922342;29;20270;-87
2023/03/12 05:27:38;;;;;;;5.47;3.60;;;;;;;4.36;57.18;100087.25;4924936;29;20373;-85
2023/03/12 05:30:11;;;;;;;9.57;3.20;;;;;;;4.48;56.90;100103.13;4929127;29;20035;-87
2023/03/12 05:32:38;;;;;;;11.13;3.47;;;;;;;4.49;56.71;100126.94;4924297;28;20134;-84
2023/03/12 05:35:04;;;;;;;9.40;4.10;;;;;;;4.52;56.64;100117.84;4930736;29;20206;-86
2023/03/12 05:37:32;;;;;;;10.27;4.28;;;;;;;4.61;56.55;100120.56;4938189;29;20099;-85
2023/03/12 05:39:59;;;;;;;14.40;4.68;;;;;;;4.72;56.18;100140.06;4944132;29;20488;-85
2023/03/12 05:42:26;;;;;;;9.30;4.68;;;;;;;4.67;55.98;100108.50;4937348;29;20054;-85
2023/03/12 05:44:51;;;;;;;12.15;3.58;;;;;;;4.94;55.36;100145.16;4915257;29;20051;-86
2023/03/12 05:47:20;;;;;;;9.50;4.03;;;;;;;5.12;54.51;100137.31;4916411;29;20512;-85
2023/03/12 05:49:46;;;;;;;10.00;4.25;;;;;;;5.25;54.38;100145.91;4917049;29;20071;-86
2023/03/12 05:52:12;;;;;;;9.25;3.92;;;;;;;5.34;54.21;100159.34;4919415;29;20047;-87
2023/03/12 05:54:38;;;;;;;8.93;3.50;;;;;;;5.36;54.27;100163.59;4949775;29;20404;-85
2023/03/12 05:57:06;;;;;;;;;;;;;;;5.46;53.61;100169.75;4914212;29;20164;-85
2023/03/12 05:59:31;;;;;;;8.07;3.65;;;;;;;5.55;53.31;100173.44;4886950;29;20029;-84
2023/03/12 06:02:00;;;;;;;10.97;3.33;;;;;;;5.62;52.78;100179.88;4927465;29;20079;-82
2023/03/12 06:04:26;;;;;;;6.90;3.40;;;;;;;5.60;52.73;100181.84;4914684;29;20398;-85
2023/03/12 06:06:55;;;;;;;11.95;3.40;;;;;;;5.55;53.02;100172.56;4929336;29;20134;-89
2023/03/12 06:09:20;;;;;;;9.35;4.20;;;;;;;5.60;52.58;100176.50;4929027;29;20047;-85
2023/03/12 06:11:46;;;;;;;7.07;3.70;;;;;;;5.80;52.28;100187.16;4913028;29;20131;-85
2023/03/12 06:14:13;;;;;;;8.30;3.47;;;;;;;6.00;51.43;100180.84;4926576;29;20094;-84
2023/03/12 06:16:39;;;;;;;8.65;3.42;;;;;;;6.11;51.35;100194.03;4931071;28;20043;-85
2023/03/12 06:19:06;;;;;;;12.13;3.70;;;;;;;6.19;50.71;100203.16;4933574;29;20050;-84
2023/03/12 06:21:34;;;;;;;8.60;3.45;;;;;;;6.18;50.86;100182.78;4930496;29;20499;-84
2023/03/12 06:23:59;;;;;;;7.72;3.17;;;;;;;6.07;50.31;100189.13;4942035;28;20197;-87
2023/03/12 06:26:26;;;;;;;;;;;;;;;6.22;50.42;100213.53;4914823;29;20091;-86
2023/03/12 06:28:53;;;;;;;9.95;3.20;;;;;;;6.19;50.28;100213.84;4935707;29;20016;-87
2023/03/12 06:31:19;;;;;;;9.10;3.85;;;;;;;6.42;50.26;100196.50;4889039;29;20043;-86
2023/03/12 06:33:47;;;;;;;16.08;3.83;;;;;;;6.80;49.65;100220.53;4903924;29;20051;-87
2023/03/12 06:36:14;;;;;;;6.30;3.88;;;;;;;6.98;48.68;100211.56;4909804;29;20133;-86
2023/03/12 06:38:41;;;;;;;10.95;5.10;;;;;;;7.37;47.74;100219.38;4930558;29;20040;-89
2023/03/12 06:41:14;;;;;;;11.40;4.57;;;;;;;9.52;43.87;100226.78;4928767;29;20138;-87
2023/03/12 06:43:40;;;;;;;16.35;5.80;;;;;;;11.08;40.12;100210.50;4931577;29;20429;-87
2023/03/12 06:46:11;;;;;;;7.10;3.53;;;;;;;12.33;37.74;100239.97;4914117;28;20036;-86
2023/03/12 06:48:40;;;;;;;10.38;3.28;;;;;;;13.30;35.38;100221.03;4909699;29;20060;-87
2023/03/12 06:51:06;;;;;;;10.75;4.00;;;;;;;13.48;34.38;100222.47;4925017;29;20069;-88
2023/03/12 06:53:31;;;;;;;;;;;;;;;14.08;33.19;100231.19;4922317;29;20046;-86
2023/03/12 06:55:58;;;;;;;6.95;3.25;;;;;;;14.90;32.11;100227.03;4935220;29;19922;-88
2023/03/12 06:58:24;;;;;;;7.50;2.97;;;;;;;15.73;30.42;100244.06;4949327;29;20075;-86
2023/03/12 07:00:53;;;;;;;8.48;2.92;;;;;;;15.24;30.66;100239.69;4950483;28;20130;-88
2023/03/12 07:03:20;;;;;;;10.40;3.58;;;;;;;15.28;30.46;100262.59;4907008;29;20036;-86
2023/03/12 07:05:46;;;;;;;10.63;3.05;;;;;;;16.06;29.72;100243.28;4927414;29;20070;-86
2023/03/12 07:08:14;;;;;;;7.90;3.47;;;;;;;16.25;28.82;100258.72;4939496;29;20055;-88
2023/03/12 07:10:40;;;;;;;8.77;3.53;;;;;;;16.78;27.87;100257.03;4929274;28;20072;-88
2023/03/12 07:13:16;;;;;;;9.00;3.08;;;;;;;16.83;28.04;100265.38;4970988;28;20131;-88
2023/03/12 07:15:45;;;;;;;7.53;3.30;;;;;;;16.56;27.72;100276.25;4942643;29;20054;-87
2023/03/12 07:18:11;;;;;;;5.05;2.78;;;;;;;16.53;28.01;100271.25;4937041;29;20040;-89
2023/03/12 07:20:52;;;;;;;;;;;;;;;;;;;;;
2023/03/12 07:23:57;;;;;;;7.22;2.67;;;;;;;15.12;29.24;100269.19;4957554;29;19919;-86
2023/03/12 07:26:23;;;;;;;9.35;3.00;;;;;;;14.41;30.56;100276.59;4925247;28;20070;-90
2023/03/12 07:28:50;;;;;;;5.18;2.50;;;;;;;14.07;31.29;100303.34;4920669;29;20035;-86
2023/03/12 07:31:19;;;;;;;8.25;2.50;;;;;;;13.85;31.55;100298.94;4927656;29;20090;-89
2023/03/12 07:33:45;;;;;;;12.00;3.40;;;;;;;12.67;33.11;100298.78;4907913;29;20049;-93
2023/03/12 07:36:17;;;;;;;6.95;2.60;;;;;;;12.31;34.15;100305.84;4925541;29;20043;-86
2023/03/12 07:38:45;;;;;;;10.35;3.03;;;;;;;11.62;34.80;100294.00;4935621;29;20521;-85
2023/03/12 07:41:11;;;;;;;8.07;2.78;;;;;;;11.37;35.92;100308.59;4930325;29;20039;-85
2023/03/12 07:43:37;;;;;;;7.43;3.00;;;;;;;11.06;36.52;100295.91;4902903;29;20051;-89
2023/03/12 07:46:05;;;;;;;8.45;2.95;;;;;;;10.64;37.23;100323.91;4932512;28;20349;-88
2023/03/12 07:48:31;;;;;;;8.52;3.38;;;;;;;10.57;37.85;100317.53;4933086;29;20143;-88
2023/03/12 07:50:56;;;;;;;5.95;3.10;;;;;;;10.59;37.81;100334.31;4931801;29;20075;-88
2023/03/12 07:53:22;;;;;;;9.05;3.00;;;;;;;10.74;37.90;100329.94;4916860;29;20519;-87
2023/03/12 07:55:49;;;;;;;4.93;3.17;;;;;;;10.39;37.74;100330.28;4948060;28;20046;-87
2023/03/12 07:58:17;;;;;;;7.97;3.42;;;;;;;9.76;39.11;100319.09;4950272;28;20035;-87
2023/03/12 08:00:43;;;;;;;7.15;3.20;;;;;;;9.85;39.46;100331.53;4935600;29;20059;-87
2023/03/12 08:03:09;;;;;;;;;;;;;;;9.87;39.59;100340.25;4933896;29;20047;-86
2023/03/12 08:05:34;;;;;;;10.77;3.20;;;;;;;9.61;39.88;100334.16;4944433;29;19941;-85
2023/03/12 08:08:05;;;;;;;11.82;3.40;;;;;;;9.78;39.83;100335.88;4934510;29;20078;-87
2023/03/12 08:10:32;;;;;;;7.38;3.10;;;;;;;9.79;39.82;100344.78;4929433;29;20046;-88
2023/03/12 08:12:59;;;;;;;6.72;2.70;;;;;;;9.42;40.83;100365.63;4931281;28;20069;-88
2023/03/12 08:15:25;;;;;;;9.93;3.20;;;;;;;9.43;40.66;100361.91;4963646;28;20085;-87
2023/03/12 08:17:53;;;;;;;4.78;2.90;;;;;;;9.77;42.48;100373.66;4959193;28;20456;-92
2023/03/12 08:20:22;;;;;;;7.60;3.13;;;;;;;9.92;40.72;100366.63;4945511;28;20126;-89
2023/03/12 08:22:50;;;;;;;13.13;3.10;;;;;;;9.87;40.24;100375.16;4971143;28;20267;-89
2023/03/12 08:25:19;;;;;;;5.15;2.97;;;;;;;9.55;41.22;100364.31;4951213;28;20482;-87
2023/03/12 08:27:48;;;;;;;8.38;2.95;;;;;;;9.80;40.27;100376.81;4944583;28;20150;-90
2023/03/12 08:30:20;;;;;;;6.60;3.15;;;;;;;9.94;39.90;100397.69;4960985;28;20057;-92
2023/03/12 08:32:47;;;;;;;9.35;3.10;;;;;;;9.88;39.83;100395.66;4980197;28;20053;-91
2023/03/12 08:35:14;;;;;;;9.30;3.05;;;;;;;9.88;40.03;100413.59;4956011;28;20039;-93
2023/03/12 08:37:42;;;;;;;6.85;3.15;;;;;;;10.07;40.52;100391.84;4972028;28;20053;-91
2023/03/12 08:40:11;;;;;;;9.32;2.85;;;;;;;9.98;40.49;100417.00;4935343;29;20063;-88
2023/03/12 08:42:40;;;;;;;5.70;3.00;;;;;;;10.04;39.92;100394.00;4975020;28;20058;-90
2023/03/12 08:50:41;;;;;;;8.15;3.20;;;;;;;10.59;38.87;100403.38;5261148;23;20138;-92
2023/03/12 08:53:42;;;;;;;7.90;3.53;;;;;;;10.96;38.83;100445.91;4939468;28;20062;-91
2023/03/12 08:56:13;;;;;;;10.45;3.40;;;;;;;11.13;38.26;100426.03;4951390;29;20063;-93
2023/03/12 08:58:39;;;;;;;10.05;3.50;;;;;;;11.58;37.62;100450.69;4931965;29;20039;-89
2023/03/12 09:01:10;;;;;;;7.22;3.15;;;;;;;11.46;36.98;100422.47;4954963;29;20050;-90
2023/03/12 09:03:40;;;;;;;6.97;3.70;;;;;;;11.57;36.74;100416.72;4913924;29;20038;-89
2023/03/12 09:06:34;;;;;;;8.32;3.40;;;;;;;11.59;36.71;100450.53;4949589;28;20070;-93
2023/03/12 09:09:23;;;;;;;6.82;2.80;;;;;;;11.25;37.28;100458.00;4957966;28;20033;-90
2023/03/12 09:11:49;;;;;;;11.10;3.15;;;;;;;11.66;36.41;100425.56;4957816;28;20063;-90
2023/03/12 09:14:17;;;;;;;7.88;3.22;;;;;;;11.82;36.03;100417.44;4967823;28;20039;-92
2023/03/12 09:16:46;;;;;;;7.68;3.10;;;;;;;12.41;35.43;100428.63;4950508;28;20047;-87
2023/03/12 09:19:13;;;;;;;6.80;3.33;;;;;;;12.81;34.79;100452.78;4947012;29;20103;-87
2023/03/12 09:21:40;;;;;;;8.45;3.78;;;;;;;13.35;34.33;100449.13;4922133;29;20054;-90
2023/03/12 09:24:23;;;;;;;6.70;3.60;;;;;;;14.24;32.59;100471.56;4940967;28;20054;-90
2023/03/12 09:26:51;;;;;;;10.43;4.03;;;;;;;14.99;31.19;100470.28;4956292;28;20170;-88
2023/03/12 09:29:17;;;;;;;;;;;;;;;15.44;30.14;100461.06;4903256;28;20060;-84
2023/03/12 09:31:47;;;;;;;6.03;3.20;;;;;;;15.65;29.05;100455.56;4957224;28;19978;-81
2023/03/12 09:34:15;;;;;;;7.30;2.58;;;;;;;15.88;28.70;100468.88;4923840;29;20047;-85
2023/03/12 09:36:40;;;;;;;8.73;2.60;;;;;;;18.28;25.51;100464.41;4938760;29;20044;-86
2023/03/12 09:39:06;;;;;;;;;;;;;;;20.07;24.09;100472.25;4920888;29;20137;-86
2023/03/12 09:41:37;;;;;;;8.55;3.10;;;;;;;22.39;21.65;100463.22;4948576;29;19926;-87
2023/03/12 09:44:15;;;;;;;6.50;2.80;;;;;;;23.80;19.78;100476.06;4922688;29;20515;-88
2023/03/12 09:46:52;;;;;;;5.47;2.60;;;;;;;24.69;18.55;100471.41;4957267;29;20046;-88
2023/03/12 09:49:47;;;;;;;5.82;2.63;;;;;;;26.01;17.31;100470.78;4903772;29;20058;-89
2023/03/12 09:52:33;;;;;;;5.75;3.58;;;;;;;25.68;17.88;100472.78;4952606;29;20039;-90
2023/03/12 09:55:03;;;;;;;10.70;3.13;;;;;;;27.21;16.21;100478.03;4900357;29;20043;-87
2023/03/12 09:57:28;;;;;;;8.95;3.00;;;;;;;27.34;15.96;100443.50;4919646;29;20093;-88
2023/03/12 10:00:06;;;;;;;9.82;2.90;;;;;;;26.18;16.85;100473.34;4910735;29;20138;-87
2023/03/12 10:02:49;;;;;;;6.97;2.70;;;;;;;24.73;17.59;100456.06;4939179;29;20051;-86
2023/03/12 10:05:42;;;;;;;6.70;2.97;;;;;;;26.71;16.32;100485.09;4945427;29;20043;-88
2023/03/12 10:08:19;;;;;;;3.90;2.72;;;;;;;25.94;17.00;100481.22;4936844;29;20099;-88
2023/03/12 10:11:00;;;;;;;10.07;2.80;;;;;;;25.45;17.00;100474.00;4947366;29;20036;-88
2023/03/12 10:13:47;;;;;;;7.07;2.90;;;;;;;24.98;17.38;100483.78;4924108;29;20027;-88
2023/03/12 10:16:30;;;;;;;6.25;3.03;;;;;;;23.82;18.38;100462.91;4933849;29;20036;-88
2023/03/12 10:19:23;;;;;;;7.25;3.05;;;;;;;25.16;17.68;100496.31;4938774;28;20031;-88
2023/03/12 10:22:15;;;;;;;6.88;2.60;;;;;;;25.23;17.18;100487.88;4947323;29;20160;-87
2023/03/12 10:24:48;;;;;;;7.60;2.60;;;;;;;26.06;15.81;100481.84;4923430;29;20066;-86
2023/03/12 10:27:17;;;;;;;5.75;2.70;;;;;;;24.10;17.12;100494.88;4945113;29;20082;-86
2023/03/12 10:29:44;;;;;;;4.38;2.70;;;;;;;22.71;18.89;100489.06;4931528;29;20126;-86
2023/03/12 10:32:21;;;;;;;10.98;3.53;;;;;;;22.00;19.94;100496.63;4928419;29;20039;-88
2023/03/12 10:35:03;;;;;;;6.47;2.80;;;;;;;24.11;17.53;100477.28;4928422;29;20042;-87
2023/03/12 10:37:42;;;;;;;5.65;2.30;;;;;;;24.27;17.40;100496.72;4936236;29;20119;-89
2023/03/12 10:40:21;;;;;;;6.38;2.83;;;;;;;23.07;18.28;100492.47;4911558;29;20070;-91
2023/03/12 10:42:48;;;;;;;5.32;2.75;;;;;;;22.23;19.45;100500.41;4924907;29;20043;-88
2023/03/12 10:45:34;;;;;;;7.43;2.65;;;;;;;21.57;19.85;100492.38;4936018;29;20023;-88
2023/03/12 10:48:08;;;;;;;5.90;2.70;;;;;;;20.71;20.85;100489.09;4925312;29;20054;-86
2023/03/12 10:50:37;;;;;;;5.68;2.63;;;;;;;20.73;21.31;100503.34;4931402;29;20115;-88
2023/03/12 10:53:30;;;;;;;10.55;3.15;;;;;;;22.90;19.65;100495.16;4905629;29;20122;-86
2023/03/12 10:56:16;;;;;;;5.60;2.65;;;;;;;23.48;18.87;100489.56;4923282;29;21624;-88
2023/03/12 10:58:49;;;;;;;9.50;2.78;;;;;;;22.04;19.98;100488.78;4916146;29;20137;-86
2023/03/12 11:01:15;;;;;;;4.13;2.40;;;;;;;21.11;20.99;100504.88;4907786;29;20048;-87
2023/03/12 11:03:42;;;;;;;12.70;3.00;;;;;;;19.13;23.37;100498.75;4933224;29;20115;-87
2023/03/12 11:06:14;;;;;;;12.35;3.17;;;;;;;18.78;23.89;100499.19;4944560;29;20126;-92
2023/03/12 11:08:41;;;;;;;9.52;3.08;;;;;;;17.99;24.55;100513.94;4921528;29;20035;-89
2023/03/12 11:11:08;;;;;;;8.40;2.83;;;;;;;16.67;26.25;100489.22;4927842;29;20066;-90
2023/03/12 11:14:14;;;;;;;13.57;3.08;;;;;;;16.39;27.22;100490.19;4918791;29;20514;-89
2023/03/12 11:16:45;;;;;;;10.00;3.90;;;;;;;16.03;27.65;100498.56;4945874;29;20155;-92
2023/03/12 11:19:26;;;;;;;5.15;3.13;;;;;;;16.60;26.97;100488.34;4951368;29;20372;-90
2023/03/12 11:21:57;;;;;;;7.93;3.30;;;;;;;16.86;26.51;100482.19;4938319;29;20062;-91
2023/03/12 11:24:25;;;;;;;6.97;3.40;;;;;;;16.98;26.32;100496.81;4919617;29;20054;-90
2023/03/12 11:26:52;;;;;;;8.15;3.35;;;;;;;16.84;26.74;100516.84;4913277;29;20147;-89
2023/03/12 11:29:42;;;;;;;10.27;3.53;;;;;;;15.99;28.21;100518.97;4951608;28;20043;-91
2023/03/12 11:32:35;;;;;;;10.77;3.40;;;;;;;15.44;28.84;100521.50;4946104;29;20058;-92
2023/03/12 11:35:03;;;;;;;7.07;3.13;;;;;;;15.07;28.81;100501.78;4922969;29;20043;-92
2023/03/12 11:37:50;;;;;;;7.95;2.90;;;;;;;14.50;29.80;100529.69;4935002;29;20066;-88
2023/03/12 11:40:38;;;;;;;6.53;3.22;;;;;;;14.23;29.72;100487.94;4938448;28;20047;-91
2023/03/12 11:43:07;;;;;;;7.88;3.40;;;;;;;13.84;30.93;100492.66;4923717;29;20069;-92
2023/03/12 11:46:06;;;;;;;5.88;3.05;;;;;;;13.76;31.33;100532.44;4929772;29;20464;-91
2023/03/12 11:48:58;;;;;;;6.30;2.85;;;;;;;13.96;30.90;100528.16;4934250;29;20039;-90
2023/03/12 11:51:49;;;;;;;5.55;3.05;;;;;;;13.67;31.54;100531.66;4931024;28;20130;-90
2023/03/12 11:55:06;;;;;;;7.38;3.60;;;;;;;13.04;32.56;100515.66;4929927;29;20539;-92